Terminal Aerodrome Forecast
Issued by NWS Bismarck, ND

Home | Current Version | Previous Version | Text Only | Print | Product List | Glossary Off
Versions: 1 2 3 4 5 6 7 8 9 10 11 12 13 14 15 16 17 18 19 20 21 22 23 24

000
FTUS43 KBIS 260900 AAB
TAFISN
TAF AMD
KISN 260921Z 2609/2706 32006KT P6SM OVC012
      TEMPO 2609/2613 -SHSN SCT015 BKN035
     FM261300 34008KT P6SM SCT020 BKN035
     FM261500 VRB02KT P6SM SCT015 BKN150
     FM262200 24004KT P6SM SCT010 BKN035=

USA.gov is the U.S. government's official web portal to all federal, state and local government web resources and services.